createdAt,value
2017-09-10T00:00:44.112Z,61.43
2017-09-10T00:01:44.129Z,61.24
2017-09-10T00:02:44.151Z,61.24
2017-09-10T00:03:44.173Z,61.24
2017-09-10T00:04:43.870Z,61.05
2017-09-10T00:05:43.889Z,61.43
2017-09-10T00:06:43.911Z,61.05
2017-09-10T00:07:56.666Z,60.96
2017-09-10T00:08:43.949Z,61.05
2017-09-10T00:09:43.968Z,60.96
2017-09-10T00:10:43.989Z,60.86
2017-09-10T00:11:44.011Z,60.86
2017-09-10T00:12:44.031Z,61.05
2017-09-10T00:13:44.051Z,61.05
2017-09-10T00:14:44.069Z,61.15
2017-09-10T00:15:44.091Z,60.96
2017-09-10T00:16:44.111Z,61.15
2017-09-10T00:17:44.128Z,61.15
2017-09-10T00:18:44.150Z,60.96
2017-09-10T00:19:44.171Z,61.34
2017-09-10T00:20:44.194Z,61.05
2017-09-10T00:21:44.532Z,61.53
2017-09-10T00:22:44.233Z,60.86
2017-09-10T00:23:44.250Z,61.34
2017-09-10T00:24:44.276Z,61.63
2017-09-10T00:25:44.617Z,61.43
2017-09-10T00:26:44.314Z,61.53
2017-09-10T00:27:44.771Z,61.53
2017-09-10T00:28:44.718Z,61.15
2017-09-10T00:29:44.746Z,61.53
2017-09-10T00:30:44.393Z,61.82
2017-09-10T00:31:44.807Z,61.63
2017-09-10T00:32:44.791Z,61.63
2017-09-10T00:33:44.803Z,61.63
2017-09-10T00:34:44.884Z,61.34
2017-09-10T00:35:44.495Z,61.53
2017-09-10T00:36:44.910Z,61.34
2017-09-10T00:37:44.929Z,61.24
2017-09-10T00:38:44.937Z,61.34
2017-09-10T00:39:44.945Z,61.34
2017-09-10T00:40:44.962Z,61.34
2017-09-10T00:41:44.713Z,61.34
2017-09-10T00:42:45.032Z,61.24
2017-09-10T00:43:44.749Z,61.63
2017-09-10T00:44:45.060Z,61.63
2017-09-10T00:45:45.068Z,61.63
2017-09-10T00:46:44.787Z,61.63
2017-09-10T00:47:45.060Z,61.63
2017-09-10T00:48:44.762Z,61.34
2017-09-10T00:49:44.886Z,61.34
2017-09-10T00:50:45.032Z,61.63
2017-09-10T00:51:45.142Z,61.24
2017-09-10T00:52:45.159Z,61.63
2017-09-10T00:53:44.949Z,61.63
2017-09-10T00:54:44.916Z,61.63
2017-09-10T00:55:44.979Z,61.53
2017-09-10T00:56:45.240Z,61.53
2017-09-10T00:57:45.260Z,61.91
2017-09-10T00:58:45.283Z,61.63
2017-09-10T00:59:45.302Z,61.91
2017-09-10T01:00:45.317Z,62.01
2017-09-10T01:01:45.345Z,61.82
2017-09-10T01:02:45.365Z,61.82
2017-09-10T01:03:45.061Z,62.01
2017-09-10T01:04:45.406Z,62.1
2017-09-10T01:05:45.425Z,62.01
2017-09-10T01:06:45.444Z,61.82
2017-09-10T01:07:45.143Z,61.82
2017-09-10T01:08:45.188Z,61.82
2017-09-10T01:09:45.182Z,61.72
2017-09-10T01:10:45.202Z,61.91
2017-09-10T01:11:45.228Z,62.2
2017-09-10T01:12:45.636Z,62.3
2017-09-10T01:13:45.263Z,62.39
2017-09-10T01:14:45.607Z,62.3
2017-09-10T01:15:45.627Z,62.2
2017-09-10T01:16:45.324Z,62.2
2017-09-10T01:17:45.660Z,62.3
2017-09-10T01:18:45.364Z,62.3
2017-09-10T01:19:45.706Z,62.1
2017-09-10T01:20:45.724Z,62.3
2017-09-10T01:21:45.745Z,61.91
2017-09-10T01:22:45.444Z,62.3
2017-09-10T01:23:45.781Z,62.01
2017-09-10T01:24:45.492Z,62.01
2017-09-10T01:25:45.502Z,62.2
2017-09-10T01:26:45.527Z,62.1
2017-09-10T01:27:45.543Z,62.3
2017-09-10T01:28:45.889Z,62.2
2017-09-10T01:29:45.907Z,62.2
2017-09-10T01:30:45.928Z,62.2
2017-09-10T01:31:45.951Z,62.2
2017-09-10T01:32:45.981Z,62.3
2017-09-10T01:33:45.988Z,62.3
2017-09-10T01:34:46.003Z,62.2
2017-09-10T01:35:46.034Z,62.3
2017-09-10T01:36:46.047Z,61.91
2017-09-10T01:37:45.748Z,62.01
2017-09-10T01:38:45.768Z,62.1
2017-09-10T01:39:46.104Z,62.1
2017-09-10T01:40:46.127Z,62.1
2017-09-10T01:41:46.149Z,62.1
2017-09-10T01:42:46.167Z,62.01
2017-09-10T01:43:46.194Z,61.82
2017-09-10T01:44:45.884Z,62.3
2017-09-10T01:45:46.231Z,61.91
2017-09-10T01:46:46.253Z,62.39
2017-09-10T01:47:45.946Z,62.2
2017-09-10T01:48:46.290Z,62.39
2017-09-10T01:49:46.308Z,62.49
2017-09-10T01:50:46.009Z,61.82
2017-09-10T01:51:46.025Z,62.49
2017-09-10T01:52:46.374Z,62.39
2017-09-10T01:53:46.389Z,62.49
2017-09-10T01:54:46.411Z,62.3
2017-09-10T01:55:46.436Z,62.3
2017-09-10T01:56:46.452Z,62.2
2017-09-10T01:57:46.147Z,62.39
2017-09-10T01:58:46.169Z,62.2
2017-09-10T01:59:46.189Z,62.26
2017-09-10T02:00:46.528Z,62.39
2017-09-10T02:01:46.549Z,62.1
2017-09-10T02:02:46.249Z,62.36
2017-09-10T02:03:46.587Z,62.39
2017-09-10T02:04:46.613Z,62.74
2017-09-10T02:05:46.628Z,62.39
2017-09-10T02:06:46.328Z,62.59
2017-09-10T02:07:46.712Z,63.03
2017-09-10T02:08:46.734Z,62.93
2017-09-10T02:09:46.389Z,62.2
2017-09-10T02:10:46.768Z,62.46
2017-09-10T02:11:46.753Z,63.22
2017-09-10T02:12:46.801Z,62.17
2017-09-10T02:13:46.470Z,63.13
2017-09-10T02:14:46.870Z,62.59
2017-09-10T02:15:46.886Z,63.16
2017-09-10T02:16:46.528Z,63.06
2017-09-10T02:17:46.994Z,62.77
2017-09-10T02:18:47.011Z,62.87
2017-09-10T02:19:46.827Z,62.68
2017-09-10T02:20:46.843Z,63.03
2017-09-10T02:21:46.731Z,62.96
2017-09-10T02:22:47.188Z,62.84
2017-09-10T02:23:47.191Z,62.93
2017-09-10T02:24:46.834Z,62.93
2017-09-10T02:25:47.220Z,62.74
2017-09-10T02:26:47.138Z,62.84
2017-09-10T02:27:47.282Z,62.84
2017-09-10T02:28:47.307Z,62.84
2017-09-10T02:29:47.313Z,62.65
2017-09-10T02:30:47.328Z,62.65
2017-09-10T02:31:47.347Z,62.65
2017-09-10T02:32:47.367Z,62.84
2017-09-10T02:33:47.386Z,62.65
2017-09-10T02:34:47.337Z,62.93
2017-09-10T02:35:47.005Z,62.93
2017-09-10T02:36:47.368Z,62.84
2017-09-10T02:37:47.047Z,62.84
2017-09-10T02:38:47.089Z,62.65
2017-09-10T02:39:47.396Z,62.84
2017-09-10T02:40:47.338Z,62.65
2017-09-10T02:41:47.038Z,62.93
2017-09-10T02:42:47.049Z,62.74
2017-09-10T02:43:47.445Z,62.74
2017-09-10T02:44:47.093Z,62.84
2017-09-10T02:45:47.108Z,62.84
2017-09-10T02:46:47.132Z,62.93
2017-09-10T02:47:47.474Z,62.84
2017-09-10T02:48:47.496Z,62.74
2017-09-10T02:49:47.514Z,62.65
2017-09-10T02:50:47.535Z,62.65
2017-09-10T02:51:47.553Z,62.84
2017-09-10T02:52:47.250Z,62.65
2017-09-10T02:53:47.598Z,62.84
2017-09-10T02:54:47.290Z,62.84
2017-09-10T02:55:47.312Z,62.55
2017-09-10T02:56:47.651Z,62.74
2017-09-10T02:57:47.348Z,62.93
2017-09-10T02:58:47.697Z,62.84
2017-09-10T02:59:47.392Z,62.65
2017-09-10T03:00:47.742Z,62.93
2017-09-10T03:01:47.428Z,62.74
2017-09-10T03:02:47.775Z,63.13
2017-09-10T03:03:47.792Z,63.13
2017-09-10T03:04:47.488Z,63.03
2017-09-10T03:05:47.828Z,63.03
2017-09-10T03:06:47.854Z,63.22
2017-09-10T03:07:47.881Z,63.03
2017-09-10T03:08:47.891Z,63.13
2017-09-10T03:09:47.591Z,62.84
2017-09-10T03:10:47.927Z,62.93
2017-09-10T03:11:47.951Z,63.03
2017-09-10T03:12:47.973Z,62.93
2017-09-10T03:13:47.988Z,62.84
2017-09-10T03:14:47.688Z,63.03
2017-09-10T03:15:47.710Z,63.13
2017-09-10T03:16:48.061Z,63.13
2017-09-10T03:17:47.748Z,63.03
2017-09-10T03:18:47.774Z,63.13
2017-09-10T03:19:47.787Z,63.03
2017-09-10T03:20:47.810Z,62.93
2017-09-10T03:21:48.154Z,62.93
2017-09-10T03:22:48.172Z,63.03
2017-09-10T03:23:48.197Z,63.03
2017-09-10T03:24:47.887Z,62.74
2017-09-10T03:25:47.909Z,63.22
2017-09-10T03:26:47.928Z,63.22
2017-09-10T03:27:47.950Z,63.03
2017-09-10T03:28:48.288Z,63.22
2017-09-10T03:29:48.311Z,63.03
2017-09-10T03:30:48.334Z,63.03
2017-09-10T03:31:48.028Z,63.13
2017-09-10T03:32:48.048Z,63.03
2017-09-10T03:33:48.067Z,63.03
2017-09-10T03:34:48.410Z,62.93
2017-09-10T03:35:48.433Z,63.03
2017-09-10T03:36:48.129Z,62.93
2017-09-10T03:37:48.151Z,62.93
2017-09-10T03:38:48.492Z,62.84
2017-09-10T03:39:48.536Z,62.93
2017-09-10T03:40:48.531Z,62.93
2017-09-10T03:41:48.229Z,63.13
2017-09-10T03:42:48.248Z,62.93
2017-09-10T03:43:48.587Z,62.93
2017-09-10T03:44:48.612Z,62.84
2017-09-10T03:45:48.627Z,62.84
2017-09-10T03:46:48.327Z,62.65
2017-09-10T03:47:48.350Z,62.93
2017-09-10T03:48:48.687Z,62.93
2017-09-10T03:49:48.712Z,62.93
2017-09-10T03:50:48.407Z,63.03
2017-09-10T03:51:48.432Z,63.03
2017-09-10T03:52:48.448Z,63.03
2017-09-10T03:53:48.791Z,63.13
2017-09-10T03:54:48.490Z,62.84
2017-09-10T03:55:48.834Z,63.22
2017-09-10T03:56:48.526Z,63.03
2017-09-10T03:57:48.870Z,62.93
2017-09-10T03:58:48.890Z,62.93
2017-09-10T03:59:48.584Z,62.93
2017-09-10T04:00:48.606Z,63.03
2017-09-10T04:01:48.947Z,62.93
2017-09-10T04:02:48.649Z,63.03
2017-09-10T04:03:48.989Z,63.03
2017-09-10T04:04:48.688Z,63.13
2017-09-10T04:05:48.708Z,63.03
2017-09-10T04:06:48.725Z,63.22
2017-09-10T04:07:48.745Z,62.93
2017-09-10T04:08:49.090Z,63.22
2017-09-10T04:09:48.787Z,63.03
2017-09-10T04:10:49.128Z,62.84
2017-09-10T04:11:49.144Z,62.74
2017-09-10T04:12:49.164Z,63.03
2017-09-10T04:13:49.185Z,62.84
2017-09-10T04:14:49.203Z,62.84
2017-09-10T04:15:48.902Z,63.03
2017-09-10T04:16:48.926Z,62.93
2017-09-10T04:17:49.261Z,63.03
2017-09-10T04:18:49.321Z,62.93
2017-09-10T04:19:48.985Z,63.13
2017-09-10T04:20:49.328Z,63.03
2017-09-10T04:21:49.342Z,63.03
2017-09-10T04:22:49.367Z,62.93
2017-09-10T04:23:49.064Z,62.93
2017-09-10T04:24:49.409Z,63.03
2017-09-10T04:25:49.107Z,63.03
2017-09-10T04:26:49.126Z,62.84
2017-09-10T04:27:49.146Z,62.93
2017-09-10T04:28:49.486Z,62.84
2017-09-10T04:29:49.509Z,62.65
2017-09-10T04:30:49.529Z,62.74
2017-09-10T04:31:49.230Z,62.55
2017-09-10T04:32:49.243Z,62.93
2017-09-10T04:33:49.586Z,62.65
2017-09-10T04:34:49.601Z,62.55
2017-09-10T04:35:49.306Z,62.65
2017-09-10T04:36:49.644Z,62.65
2017-09-10T04:37:49.343Z,62.65
2017-09-10T04:38:49.682Z,62.65
2017-09-10T04:39:49.705Z,62.74
2017-09-10T04:40:49.724Z,63.22
2017-09-10T04:41:49.747Z,62.74
2017-09-10T04:42:49.443Z,62.55
2017-09-10T04:43:49.778Z,62.74
2017-09-10T04:44:49.809Z,62.84
2017-09-10T04:45:49.501Z,63.22
2017-09-10T04:46:49.518Z,62.84
2017-09-10T04:47:49.865Z,62.93
2017-09-10T04:48:49.564Z,62.93
2017-09-10T04:49:49.581Z,62.84
2017-09-10T04:50:49.603Z,63.32
2017-09-10T04:51:49.945Z,63.32
2017-09-10T04:52:49.963Z,63.32
2017-09-10T04:53:49.658Z,62.93
2017-09-10T04:54:49.679Z,63.03
2017-09-10T04:55:50.029Z,63.03
2017-09-10T04:56:50.039Z,62.93
2017-09-10T04:57:49.739Z,62.93
2017-09-10T04:58:50.085Z,62.93
2017-09-10T04:59:50.097Z,63.29
2017-09-10T05:00:50.120Z,63.32
2017-09-10T05:01:49.826Z,63.03
2017-09-10T05:02:50.162Z,63.03
2017-09-10T05:03:49.855Z,63.03
2017-09-10T05:04:50.207Z,63.13
2017-09-10T05:05:50.227Z,63.03
2017-09-10T05:06:49.918Z,63.13
2017-09-10T05:07:49.935Z,63.13
2017-09-10T05:08:50.275Z,63.13
2017-09-10T05:09:50.295Z,63.13
2017-09-10T05:10:50.321Z,63.13
2017-09-10T05:11:50.338Z,62.93
2017-09-10T05:12:50.359Z,63.03
2017-09-10T05:13:50.372Z,63.03
2017-09-10T05:14:50.401Z,63.03
2017-09-10T05:15:50.414Z,63.13
2017-09-10T05:16:50.436Z,63.32
2017-09-10T05:17:50.136Z,63.03
2017-09-10T05:18:50.482Z,62.93
2017-09-10T05:19:50.174Z,63.13
2017-09-10T05:20:50.515Z,63.32
2017-09-10T05:21:50.537Z,62.84
2017-09-10T05:22:50.554Z,63.13
2017-09-10T05:23:50.582Z,63.32
2017-09-10T05:24:50.597Z,62.84
2017-09-10T05:25:50.290Z,63.42
2017-09-10T05:26:50.639Z,63.22
2017-09-10T05:27:50.657Z,63.03
2017-09-10T05:28:50.676Z,62.74
2017-09-10T05:29:50.375Z,62.84
2017-09-10T05:30:50.713Z,62.84
2017-09-10T05:31:50.737Z,63.22
2017-09-10T05:32:50.433Z,63.32
2017-09-10T05:33:50.777Z,62.84
2017-09-10T05:34:50.793Z,63.03
2017-09-10T05:35:50.814Z,62.93
2017-09-10T05:36:50.833Z,63.22
2017-09-10T05:37:50.854Z,62.55
2017-09-10T05:38:50.874Z,63.22
2017-09-10T05:39:50.567Z,63.22
2017-09-10T05:40:50.909Z,62.65
2017-09-10T05:41:50.614Z,62.65
2017-09-10T05:42:50.628Z,62.93
2017-09-10T05:43:50.973Z,63.03
2017-09-10T05:44:50.666Z,63.03
2017-09-10T05:45:51.013Z,63.13
2017-09-10T05:46:51.029Z,63.03
2017-09-10T05:47:50.730Z,62.84
2017-09-10T05:48:51.068Z,62.74
2017-09-10T05:49:51.157Z,62.93
2017-09-10T05:50:51.112Z,62.74
2017-09-10T05:51:51.130Z,63.13
2017-09-10T05:52:51.146Z,62.74
2017-09-10T05:53:50.878Z,62.93
2017-09-10T05:54:51.191Z,62.93
2017-09-10T05:55:51.211Z,63.03
2017-09-10T05:56:50.909Z,63.03
2017-09-10T05:57:50.931Z,62.93
2017-09-10T05:58:50.946Z,62.84
2017-09-10T05:59:51.291Z,62.93
2017-09-10T06:00:51.310Z,62.74
2017-09-10T06:01:51.007Z,62.84
2017-09-10T06:02:51.355Z,62.74
2017-09-10T06:03:51.368Z,62.65
2017-09-10T06:04:51.390Z,63.32
2017-09-10T06:05:51.410Z,63.13
2017-09-10T06:06:51.430Z,63.32
2017-09-10T06:07:51.138Z,62.84
2017-09-10T06:08:51.471Z,63.42
2017-09-10T06:09:51.485Z,63.03
2017-09-10T06:10:51.232Z,63.13
2017-09-10T06:11:51.527Z,63.13
2017-09-10T06:12:51.226Z,63.22
2017-09-10T06:13:51.246Z,63.22
2017-09-10T06:14:51.267Z,63.22
2017-09-10T06:15:51.608Z,63.32
2017-09-10T06:16:51.307Z,63.13
2017-09-10T06:17:51.350Z,62.77
2017-09-10T06:18:51.668Z,63.51
2017-09-10T06:19:51.365Z,63.51
2017-09-10T06:20:51.384Z,63.51
2017-09-10T06:21:51.733Z,63.06
2017-09-10T06:22:51.424Z,63.45
2017-09-10T06:23:51.774Z,63.54
2017-09-10T06:24:51.468Z,63.51
2017-09-10T06:25:51.807Z,63.22
2017-09-10T06:26:51.858Z,63.54
2017-09-10T06:27:51.848Z,63.35
2017-09-10T06:28:51.868Z,63.6
2017-09-10T06:29:51.572Z,63.54
2017-09-10T06:30:51.584Z,63.32
2017-09-10T06:31:51.605Z,63.45
2017-09-10T06:32:51.948Z,63.35
2017-09-10T06:33:51.961Z,63.42
2017-09-10T06:34:51.665Z,63.45
2017-09-10T06:35:51.687Z,63.35
2017-09-10T06:36:52.028Z,63.54
2017-09-10T06:37:52.046Z,63.45
2017-09-10T06:38:52.068Z,63.35
2017-09-10T06:39:52.086Z,63.26
2017-09-10T06:40:52.109Z,63.45
2017-09-10T06:41:52.129Z,63.26
2017-09-10T06:42:52.148Z,63.35
2017-09-10T06:43:51.841Z,63.16
2017-09-10T06:44:52.180Z,63.16
2017-09-10T06:45:51.883Z,62.96
2017-09-10T06:46:51.905Z,63.16
2017-09-10T06:47:51.921Z,63.35
2017-09-10T06:48:52.265Z,63.35
2017-09-10T06:49:51.967Z,63.06
2017-09-10T06:50:52.305Z,63.64
2017-09-10T06:51:52.019Z,63.06
2017-09-10T06:52:52.347Z,63.16
2017-09-10T06:53:52.043Z,63.26
2017-09-10T06:54:52.061Z,62.96
2017-09-10T06:55:52.402Z,63.16
2017-09-10T06:56:52.422Z,62.77
2017-09-10T06:57:52.447Z,63.35
2017-09-10T06:58:52.462Z,63.26
2017-09-10T06:59:52.482Z,62.87
2017-09-10T07:00:52.187Z,63.16
2017-09-10T07:01:52.206Z,62.59
2017-09-10T07:02:52.543Z,62.68
2017-09-10T07:03:52.571Z,62.96
2017-09-10T07:04:52.267Z,62.96
2017-09-10T07:05:52.608Z,63.16
2017-09-10T07:06:52.631Z,62.77
2017-09-10T07:07:52.647Z,63
2017-09-10T07:08:52.667Z,62.68
2017-09-10T07:09:52.682Z,62.9
2017-09-10T07:10:52.707Z,62.9
2017-09-10T07:11:52.731Z,62.81
2017-09-10T07:12:52.749Z,62.9
2017-09-10T07:13:52.765Z,63
2017-09-10T07:14:52.465Z,62.71
2017-09-10T07:15:52.812Z,63.29
2017-09-10T07:16:52.504Z,63.19
2017-09-10T07:17:52.847Z,62.33
2017-09-10T07:18:52.544Z,62.42
2017-09-10T07:19:52.571Z,62.13
2017-09-10T07:20:52.586Z,62.33
2017-09-10T07:21:52.926Z,62.23
2017-09-10T07:22:52.627Z,62.42
2017-09-10T07:23:52.647Z,62.42
2017-09-10T07:24:52.985Z,62.04
2017-09-10T07:25:52.685Z,62.23
2017-09-10T07:26:53.028Z,62.23
2017-09-10T07:27:52.727Z,62.23
2017-09-10T07:28:53.098Z,62.42
2017-09-10T07:29:53.088Z,62.23
2017-09-10T07:30:52.787Z,61.94
2017-09-10T07:31:53.124Z,61.94
2017-09-10T07:32:53.169Z,62.13
2017-09-10T07:33:52.847Z,62.13
2017-09-10T07:34:52.867Z,62.13
2017-09-10T07:35:53.207Z,62.33
2017-09-10T07:36:53.227Z,62.26
2017-09-10T07:37:53.251Z,62.36
2017-09-10T07:38:53.269Z,62.16
2017-09-10T07:39:52.970Z,62.04
2017-09-10T07:40:53.315Z,61.98
2017-09-10T07:41:53.010Z,61.88
2017-09-10T07:42:53.351Z,61.98
2017-09-10T07:43:53.375Z,61.78
2017-09-10T07:44:53.072Z,62.07
2017-09-10T07:45:53.088Z,62.07
2017-09-10T07:46:53.433Z,61.88
2017-09-10T07:47:53.465Z,62.26
2017-09-10T07:48:53.150Z,61.59
2017-09-10T07:49:53.172Z,61.78
2017-09-10T07:50:53.194Z,61.4
2017-09-10T07:51:53.535Z,61.78
2017-09-10T07:52:53.235Z,61.49
2017-09-10T07:53:53.255Z,61.3
2017-09-10T07:54:53.276Z,61.11
2017-09-10T07:55:53.296Z,61.3
2017-09-10T07:56:53.311Z,61.3
2017-09-10T07:57:53.656Z,61.78
2017-09-10T07:58:53.681Z,61.4
2017-09-10T07:59:53.698Z,61.59
2017-09-10T08:00:53.394Z,61.11
2017-09-10T08:01:53.733Z,60.92
2017-09-10T08:02:53.804Z,61.11
2017-09-10T08:03:53.454Z,61.11
2017-09-10T08:04:53.803Z,61.43
2017-09-10T08:05:53.501Z,61.05
2017-09-10T08:06:53.843Z,61.52
2017-09-10T08:07:53.865Z,61.62
2017-09-10T08:08:53.882Z,61.24
2017-09-10T08:09:53.906Z,61.14
2017-09-10T08:10:53.924Z,60.95
2017-09-10T08:11:53.620Z,60.95
2017-09-10T08:12:53.643Z,61.05
2017-09-10T08:13:53.984Z,60.66
2017-09-10T08:14:54.008Z,60.47
2017-09-10T08:15:53.702Z,60.47
2017-09-10T08:16:54.162Z,59.99
2017-09-10T08:17:54.177Z,60.18
2017-09-10T08:18:54.085Z,59.34
2017-09-10T08:19:54.208Z,59.16
2017-09-10T08:20:54.217Z,59.92
2017-09-10T08:21:53.828Z,59.34
2017-09-10T08:22:54.202Z,59.16
2017-09-10T08:23:54.241Z,59.25
2017-09-10T08:24:54.239Z,59.34
2017-09-10T08:25:53.906Z,59.44
2017-09-10T08:26:53.937Z,59.25
2017-09-10T08:27:54.377Z,59.16
2017-09-10T08:28:53.971Z,59.06
2017-09-10T08:29:54.401Z,59.16
2017-09-10T08:30:54.010Z,59.38
2017-09-10T08:31:54.033Z,58.58
2017-09-10T08:32:54.409Z,58.32
2017-09-10T08:33:54.150Z,58.32
2017-09-10T08:34:54.448Z,58.51
2017-09-10T08:35:54.447Z,58.42
2017-09-10T08:36:54.236Z,58.42
2017-09-10T08:37:54.222Z,58.42
2017-09-10T08:38:54.523Z,58.51
2017-09-10T08:39:54.528Z,58.22
2017-09-10T08:40:54.222Z,58.22
2017-09-10T08:41:54.557Z,57.77
2017-09-10T08:42:54.584Z,57.68
2017-09-10T08:43:54.606Z,57.48
2017-09-10T08:44:54.622Z,57.48
2017-09-10T08:45:54.385Z,57.39
2017-09-10T08:46:54.660Z,57.2
2017-09-10T08:47:54.391Z,56.62
2017-09-10T08:48:54.703Z,56.23
2017-09-10T08:49:54.428Z,56.04
2017-09-10T08:50:54.757Z,55.85
2017-09-10T08:51:54.450Z,55.85
2017-09-10T08:52:54.467Z,55.27
2017-09-10T08:53:54.487Z,55.37
2017-09-10T08:54:54.833Z,55.08
2017-09-10T08:55:54.532Z,54.22
2017-09-10T08:56:54.878Z,54.6
2017-09-10T08:57:54.576Z,55.08
2017-09-10T08:58:54.911Z,55.18
2017-09-10T08:59:54.935Z,55.3
2017-09-10T09:00:54.956Z,54.82
2017-09-10T09:01:54.979Z,54.72
2017-09-10T09:02:54.681Z,54.63
2017-09-10T09:03:55.126Z,54.63
2017-09-10T09:04:55.135Z,54.24
2017-09-10T09:05:54.738Z,54.34
2017-09-10T09:06:54.760Z,54.27
2017-09-10T09:07:55.158Z,54.46
2017-09-10T09:08:54.807Z,54.36
2017-09-10T09:09:54.823Z,54.27
2017-09-10T09:10:54.850Z,53.98
2017-09-10T09:11:55.274Z,53.98
2017-09-10T09:12:55.292Z,53.88
2017-09-10T09:13:54.914Z,53.5
2017-09-10T09:14:55.322Z,53.72
2017-09-10T09:15:55.348Z,53.62
2017-09-10T09:16:55.382Z,53.14
2017-09-10T09:17:55.390Z,53.14
2017-09-10T09:18:55.021Z,53.14
2017-09-10T09:19:55.128Z,52.56
2017-09-10T09:20:55.165Z,52.56
2017-09-10T09:21:55.463Z,52.37
2017-09-10T09:22:55.170Z,52.47
2017-09-10T09:23:55.472Z,52.08
2017-09-10T09:24:55.478Z,52.56
2017-09-10T09:25:55.261Z,52.37
2017-09-10T09:26:55.518Z,51.43
2017-09-10T09:27:55.534Z,51.24
2017-09-10T09:28:55.285Z,51.43
2017-09-10T09:29:55.285Z,51.53
2017-09-10T09:30:55.292Z,51.34
2017-09-10T09:31:55.621Z,51.24
2017-09-10T09:32:55.644Z,51.34
2017-09-10T09:33:55.666Z,50.76
2017-09-10T09:34:55.691Z,50.49
2017-09-10T09:35:55.705Z,50.3
2017-09-10T09:36:55.435Z,50.01
2017-09-10T09:37:55.754Z,50.4
2017-09-10T09:38:55.775Z,50.88
2017-09-10T09:39:55.799Z,49.91
2017-09-10T09:40:55.496Z,49.53
2017-09-10T09:41:55.842Z,49.73
2017-09-10T09:42:55.856Z,49.46
2017-09-10T09:43:55.878Z,49.55
2017-09-10T09:44:55.906Z,49.75
2017-09-10T09:45:55.930Z,49.27
2017-09-10T09:46:55.952Z,49.65
2017-09-10T09:47:55.647Z,48.81
2017-09-10T09:48:55.670Z,48.52
2017-09-10T09:49:56.014Z,48.03
2017-09-10T09:50:56.039Z,48.03
2017-09-10T09:51:55.735Z,47.75
2017-09-10T09:52:56.080Z,47.17
2017-09-10T09:53:56.109Z,47.45
2017-09-10T09:54:56.129Z,47.36
2017-09-10T09:55:56.151Z,47.29
2017-09-10T09:56:56.178Z,47
2017-09-10T09:57:56.198Z,46.61
2017-09-10T09:58:56.217Z,47
2017-09-10T09:59:56.237Z,46.61
2017-09-10T10:00:55.950Z,46.61
2017-09-10T10:01:56.286Z,46.42
2017-09-10T10:02:55.984Z,46.54
2017-09-10T10:03:56.332Z,46.25
2017-09-10T10:04:56.354Z,46.06
2017-09-10T10:05:56.372Z,45.89
2017-09-10T10:06:56.073Z,45.5
2017-09-10T10:07:56.099Z,45.5
2017-09-10T10:08:56.121Z,45.01
2017-09-10T10:09:56.139Z,44.92
2017-09-10T10:10:56.164Z,44.53
2017-09-10T10:11:56.191Z,44.63
2017-09-10T10:12:56.547Z,44.17
2017-09-10T10:13:56.237Z,44.36
2017-09-10T10:14:56.583Z,43.78
2017-09-10T10:15:56.611Z,43.98
2017-09-10T10:16:56.305Z,43.98
2017-09-10T10:17:56.329Z,43.78
2017-09-10T10:18:56.355Z,44.17
2017-09-10T10:19:56.375Z,43.41
2017-09-10T10:20:56.395Z,43.13
2017-09-10T10:21:56.447Z,43.23
2017-09-10T10:22:56.447Z,42.83
2017-09-10T10:23:56.791Z,43.32
2017-09-10T10:24:56.810Z,43.03
2017-09-10T10:25:56.847Z,42.74
2017-09-10T10:26:56.535Z,42.47
2017-09-10T10:27:56.885Z,42.37
2017-09-10T10:28:56.910Z,42.47
2017-09-10T10:29:56.608Z,42.76
2017-09-10T10:30:56.634Z,42.18
2017-09-10T10:31:56.653Z,42.37
2017-09-10T10:32:57.001Z,42.37
2017-09-10T10:33:56.705Z,42.37
2017-09-10T10:34:56.729Z,42.28
2017-09-10T10:35:57.163Z,42.66
2017-09-10T10:36:57.161Z,42.28
2017-09-10T10:37:56.798Z,42.57
2017-09-10T10:38:56.825Z,42.76
2017-09-10T10:39:57.175Z,42.47
2017-09-10T10:40:57.299Z,42.74
2017-09-10T10:41:57.326Z,42.66
2017-09-10T10:42:57.325Z,42.74
2017-09-10T10:43:57.266Z,42.47
2017-09-10T10:44:57.412Z,42.47
2017-09-10T10:45:57.098Z,42.66
2017-09-10T10:46:57.430Z,42.83
2017-09-10T10:47:57.460Z,43.23
2017-09-10T10:48:57.617Z,43.41
2017-09-10T10:49:57.620Z,43.24
2017-09-10T10:50:57.622Z,43.05
2017-09-10T10:51:57.314Z,42.96
2017-09-10T10:52:57.313Z,43.24
2017-09-10T10:53:57.628Z,43.24
2017-09-10T10:54:57.624Z,43.34
2017-09-10T10:55:57.758Z,42.74
2017-09-10T10:56:57.418Z,42.83
2017-09-10T10:57:57.776Z,42.65
2017-09-10T10:58:57.456Z,42.45
2017-09-10T10:59:57.453Z,42.25
2017-09-10T11:00:57.457Z,42.35
2017-09-10T11:01:57.770Z,42.65
2017-09-10T11:02:57.484Z,42.16
2017-09-10T11:03:57.494Z,42.35
2017-09-10T11:04:57.850Z,42.25
2017-09-10T11:05:57.480Z,42.35
2017-09-10T11:06:57.503Z,42.16
2017-09-10T11:07:57.849Z,42.45
2017-09-10T11:08:57.872Z,42.28
2017-09-10T11:09:57.579Z,42.47
2017-09-10T11:10:57.598Z,42.08
2017-09-10T11:11:57.626Z,41.5
2017-09-10T11:12:57.651Z,41.41
2017-09-10T11:13:57.994Z,41.31
2017-09-10T11:14:58.019Z,41.41
2017-09-10T11:15:57.723Z,41.11
2017-09-10T11:16:58.079Z,40.73
2017-09-10T11:17:58.093Z,40.44
2017-09-10T11:18:57.797Z,40.34
2017-09-10T11:19:58.150Z,40.15
2017-09-10T11:20:58.169Z,40.25
2017-09-10T11:21:58.191Z,40.05
2017-09-10T11:22:58.213Z,40.25
2017-09-10T11:23:57.919Z,40.25
2017-09-10T11:24:57.943Z,40.34
2017-09-10T11:25:57.968Z,40.15
2017-09-10T11:26:57.995Z,40.26
2017-09-10T11:27:58.339Z,40.26
2017-09-10T11:28:58.372Z,40.36
2017-09-10T11:29:58.068Z,40.36
2017-09-10T11:30:58.092Z,40.36
2017-09-10T11:31:58.440Z,40.36
2017-09-10T11:32:58.470Z,40.65
2017-09-10T11:33:58.168Z,40.94
2017-09-10T11:34:58.511Z,40.65
2017-09-10T11:35:58.541Z,40.65
2017-09-10T11:36:58.241Z,40.36
2017-09-10T11:37:58.587Z,40.65
2017-09-10T11:38:58.614Z,40.36
2017-09-10T11:39:58.316Z,40.65
2017-09-10T11:40:58.665Z,40.75
2017-09-10T11:41:58.367Z,40.75
2017-09-10T11:42:58.391Z,40.46
2017-09-10T11:43:58.739Z,40.28
2017-09-10T11:44:58.438Z,39.7
2017-09-10T11:45:58.468Z,39.51
2017-09-10T11:46:58.895Z,39.51
2017-09-10T11:47:58.838Z,39.7
2017-09-10T11:48:58.542Z,39.61
2017-09-10T11:49:58.889Z,39.8
2017-09-10T11:50:58.593Z,39.61
2017-09-10T11:51:58.614Z,39.51
2017-09-10T11:52:58.970Z,39.41
2017-09-10T11:53:58.667Z,39.61
2017-09-10T11:54:58.689Z,39.8
2017-09-10T11:55:58.715Z,39.41
2017-09-10T11:56:59.089Z,39.32
2017-09-10T11:57:59.089Z,39.04
2017-09-10T11:58:58.798Z,39.03
2017-09-10T11:59:58.820Z,38.95
2017-09-10T12:00:59.167Z,38.66
2017-09-10T12:01:58.868Z,38.66
2017-09-10T12:02:58.895Z,38.76
2017-09-10T12:03:58.919Z,38.56
2017-09-10T12:04:58.943Z,38.37
2017-09-10T12:05:58.970Z,38.48
2017-09-10T12:06:58.992Z,38.29
2017-09-10T12:07:59.344Z,38.19
2017-09-10T12:08:59.047Z,38
2017-09-10T12:09:59.073Z,38.09
2017-09-10T12:10:59.095Z,37.81
2017-09-10T12:11:59.124Z,37.81
2017-09-10T12:12:59.147Z,37.13
2017-09-10T12:13:59.174Z,37.13
2017-09-10T12:14:59.201Z,36.83
2017-09-10T12:15:59.226Z,35.96
2017-09-10T12:16:59.573Z,35.86
2017-09-10T12:17:59.600Z,35.77
2017-09-10T12:18:59.627Z,35.67
2017-09-10T12:19:59.326Z,35.57
2017-09-10T12:20:59.357Z,35.48
2017-09-10T12:21:59.378Z,35.86
2017-09-10T12:22:59.734Z,35.96
2017-09-10T12:23:59.431Z,35.77
2017-09-10T12:24:59.779Z,35.78
2017-09-10T12:25:59.802Z,35.78
2017-09-10T12:26:59.830Z,35.88
2017-09-10T12:27:59.540Z,35.21
2017-09-10T12:28:59.883Z,35.88
2017-09-10T12:29:59.909Z,35.4
2017-09-10T12:30:59.614Z,35.98
2017-09-10T12:31:59.958Z,35.51
2017-09-10T12:32:59.667Z,35.61
2017-09-10T12:33:59.690Z,35.71
2017-09-10T12:35:00.039Z,35.51
2017-09-10T12:36:00.067Z,35.41
2017-09-10T12:37:00.091Z,35.71
2017-09-10T12:38:00.122Z,35.61
2017-09-10T12:39:00.148Z,35.41
2017-09-10T12:40:00.172Z,35.61
2017-09-10T12:41:00.197Z,35.71
2017-09-10T12:42:00.220Z,35.71
2017-09-10T12:43:00.253Z,35.71
2017-09-10T12:43:59.951Z,35.9
2017-09-10T12:44:59.980Z,35.9
2017-09-10T12:46:00.000Z,35.71
2017-09-10T12:47:00.352Z,35.71
2017-09-10T12:48:00.382Z,35.8
2017-09-10T12:49:00.114Z,36.11
2017-09-10T12:50:00.111Z,36.4
2017-09-10T12:51:00.140Z,35.82
2017-09-10T12:52:00.160Z,35.82
2017-09-10T12:53:00.510Z,35.92
2017-09-10T12:54:00.545Z,36.21
2017-09-10T12:55:00.562Z,35.43
2017-09-10T12:56:00.265Z,35.72